createdAt,value
2019-01-21T00:01:00.392Z,100.00
2019-01-21T00:03:30.162Z,100.00
2019-01-21T00:05:59.767Z,100.00
2019-01-21T00:08:29.460Z,100.00
2019-01-21T00:10:59.049Z,100.00
2019-01-21T00:13:28.659Z,100.00
2019-01-21T00:15:58.443Z,100.00
2019-01-21T00:18:28.081Z,100.00
2019-01-21T00:20:57.682Z,100.00
2019-01-21T00:23:27.478Z,100.00
2019-01-21T00:25:57.112Z,100.00
2019-01-21T00:28:26.738Z,100.00
2019-01-21T00:30:56.402Z,100.00
2019-01-21T00:33:26.046Z,100.00
2019-01-21T00:35:55.669Z,100.00
2019-01-21T00:38:25.384Z,100.00
2019-01-21T00:40:55.182Z,100.00
2019-01-21T00:43:24.805Z,100.00
2019-01-21T00:45:54.507Z,100.00
2019-01-21T00:48:24.195Z,100.00
2019-01-21T00:50:53.813Z,100.00
2019-01-21T00:53:23.497Z,100.00
2019-01-21T00:55:53.103Z,100.00
2019-01-21T00:58:22.752Z,100.00
2019-01-21T01:00:52.530Z,100.00
2019-01-21T01:03:22.266Z,100.00
2019-01-21T01:05:52.003Z,100.00
2019-01-21T01:08:21.666Z,100.00
2019-01-21T01:10:51.318Z,100.00
2019-01-21T01:13:20.965Z,100.00
2019-01-21T01:15:50.746Z,100.00
2019-01-21T01:18:20.420Z,100.00
2019-01-21T01:20:50.107Z,100.00
2019-01-21T01:23:19.792Z,100.00
2019-01-21T01:25:49.428Z,100.00
2019-01-21T01:28:19.046Z,100.00
2019-01-21T01:30:48.711Z,100.00
2019-01-21T01:33:18.346Z,100.00
2019-01-21T01:35:48.080Z,100.00
2019-01-21T01:38:17.769Z,100.00
2019-01-21T01:40:47.377Z,100.00
2019-01-21T01:43:16.978Z,100.00
2019-01-21T01:45:46.645Z,100.00
2019-01-21T01:48:16.306Z,100.00
2019-01-21T01:50:45.967Z,100.00
2019-01-21T01:53:15.744Z,100.00
2019-01-21T01:55:45.648Z,100.00
2019-01-21T01:58:15.275Z,100.00
2019-01-21T02:00:45.141Z,100.00
2019-01-21T02:03:14.731Z,100.00
2019-01-21T02:05:44.371Z,100.00
2019-01-21T02:08:14.435Z,100.00
2019-01-21T02:10:44.023Z,100.00
2019-01-21T02:13:13.788Z,100.00
2019-01-21T02:15:43.444Z,100.00
2019-01-21T02:18:13.039Z,100.00
2019-01-21T02:20:44.406Z,100.00
2019-01-21T02:23:17.252Z,100.00
2019-01-21T02:26:01.013Z,100.00
2019-01-21T02:29:09.449Z,100.00
2019-01-21T02:32:27.718Z,100.00
2019-01-21T02:35:20.551Z,100.00
2019-01-21T02:38:10.873Z,100.00
2019-01-21T02:41:17.145Z,100.00
2019-01-21T02:44:18.365Z,100.00
2019-01-21T02:47:21.580Z,100.00
2019-01-21T02:50:41.951Z,100.00
2019-01-21T02:54:01.327Z,100.00
2019-01-21T02:57:09.138Z,100.00
2019-01-21T03:00:00.740Z,100.00
2019-01-21T03:03:19.762Z,100.00
2019-01-21T03:06:14.847Z,100.00
2019-01-21T03:09:19.382Z,100.00
2019-01-21T03:12:38.505Z,100.00
2019-01-21T03:15:35.620Z,100.00
2019-01-21T03:18:55.283Z,100.00
2019-01-21T03:21:53.974Z,100.00
2019-01-21T03:25:25.303Z,100.00
2019-01-21T03:28:40.053Z,100.00
2019-01-21T03:31:46.088Z,100.00
2019-01-21T03:34:52.620Z,100.00
2019-01-21T03:37:49.852Z,100.00
2019-01-21T03:40:57.603Z,100.00
2019-01-21T03:44:03.986Z,100.00
2019-01-21T03:47:21.327Z,100.00
2019-01-21T03:50:28.796Z,100.00
2019-01-21T03:53:39.393Z,100.00
2019-01-21T03:56:14.972Z,100.00
2019-01-21T03:59:05.890Z,100.00
2019-01-21T04:02:04.751Z,100.00
2019-01-21T04:05:19.215Z,100.00
2019-01-21T04:08:41.319Z,100.00
2019-01-21T04:11:27.477Z,100.00
2019-01-21T04:14:26.298Z,100.00
2019-01-21T04:17:22.964Z,100.00
2019-01-21T04:20:22.402Z,100.00
2019-01-21T04:23:29.399Z,100.00
2019-01-21T04:26:30.895Z,100.00
2019-01-21T04:29:08.237Z,100.00
2019-01-21T04:32:13.548Z,100.00
2019-01-21T04:35:13.883Z,100.00
2019-01-21T04:38:39.076Z,100.00
2019-01-21T04:41:17.918Z,100.00
2019-01-21T04:44:33.166Z,100.00
2019-01-21T04:47:57.439Z,100.00
2019-01-21T04:51:12.009Z,100.00
2019-01-21T04:54:13.896Z,100.00
2019-01-21T04:57:12.121Z,100.00
2019-01-21T05:00:08.695Z,100.00
2019-01-21T05:03:34.385Z,100.00
2019-01-21T05:06:51.201Z,100.00
2019-01-21T05:10:10.465Z,100.00
2019-01-21T05:12:56.257Z,100.00
2019-01-21T05:16:14.585Z,100.00
2019-01-21T05:19:26.884Z,100.00
2019-01-21T05:22:49.305Z,100.00
2019-01-21T05:25:39.087Z,100.00
2019-01-21T05:28:47.384Z,100.00
2019-01-21T05:31:46.962Z,100.00
2019-01-21T05:34:38.019Z,100.00
2019-01-21T05:37:48.561Z,100.00
2019-01-21T05:41:05.051Z,100.00
2019-01-21T05:44:07.621Z,100.00
2019-01-21T05:47:22.730Z,100.00
2019-01-21T05:50:40.184Z,100.00
2019-01-21T05:53:44.363Z,100.00
2019-01-21T05:56:51.934Z,100.00
2019-01-21T06:00:09.477Z,100.00
2019-01-21T06:03:13.799Z,100.00
2019-01-21T06:06:36.361Z,100.00
2019-01-21T06:09:37.790Z,100.00
2019-01-21T06:12:44.620Z,100.00
2019-01-21T06:15:55.399Z,100.00
2019-01-21T06:18:38.487Z,100.00
2019-01-21T06:21:47.723Z,100.00
2019-01-21T06:24:36.247Z,100.00
2019-01-21T06:27:32.609Z,100.00
2019-01-21T06:30:37.226Z,100.00
2019-01-21T06:33:52.221Z,100.00
2019-01-21T06:36:53.125Z,100.00
2019-01-21T06:40:21.290Z,100.00
2019-01-21T06:43:05.543Z,100.00
2019-01-21T06:46:29.948Z,100.00
2019-01-21T06:49:30.974Z,100.00
2019-01-21T06:52:31.205Z,100.00
2019-01-21T06:55:33.982Z,100.00
2019-01-21T06:58:35.853Z,94.27
2019-01-21T07:01:46.006Z,98.14
2019-01-21T07:04:48.468Z,100.00
2019-01-21T07:08:06.898Z,100.00
2019-01-21T07:11:01.665Z,100.00
2019-01-21T07:13:55.968Z,100.00
2019-01-21T07:16:56.610Z,100.00
2019-01-21T07:19:57.929Z,100.00
2019-01-21T07:23:14.507Z,100.00
2019-01-21T07:25:55.181Z,100.00
2019-01-21T07:28:57.008Z,100.00
2019-01-21T07:32:08.985Z,100.00
2019-01-21T07:35:26.286Z,100.00
2019-01-21T07:38:21.345Z,100.00
2019-01-21T07:41:13.744Z,100.00
2019-01-21T07:44:21.340Z,100.00
2019-01-21T07:47:29.979Z,100.00
2019-01-21T07:50:58.070Z,100.00
2019-01-21T07:54:05.599Z,100.00
2019-01-21T07:57:06.268Z,100.00
2019-01-21T08:00:18.529Z,100.00
2019-01-21T08:03:20.373Z,100.00
2019-01-21T08:06:42.551Z,100.00
2019-01-21T08:09:54.163Z,100.00
2019-01-21T08:12:53.373Z,100.00
2019-01-21T08:15:53.520Z,100.00
2019-01-21T08:18:51.769Z,100.00
2019-01-21T08:22:05.724Z,100.00
2019-01-21T08:25:23.472Z,100.00
2019-01-21T08:28:18.588Z,100.00
2019-01-21T08:31:32.322Z,100.00
2019-01-21T08:34:54.663Z,99.13
2019-01-21T08:38:06.301Z,100.00
2019-01-21T08:41:40.581Z,99.10
2019-01-21T08:44:53.947Z,100.00
2019-01-21T08:47:45.998Z,97.20
2019-01-21T08:50:39.891Z,96.30
2019-01-21T08:53:34.047Z,97.64
2019-01-21T08:56:32.307Z,96.13
2019-01-21T08:59:33.806Z,99.28
2019-01-21T09:02:33.944Z,100.00
2019-01-21T09:05:29.615Z,98.53
2019-01-21T09:08:37.747Z,99.95
2019-01-21T09:11:55.508Z,98.83
2019-01-21T09:14:53.539Z,98.15
2019-01-21T09:18:10.258Z,96.73
2019-01-21T09:21:38.263Z,94.76
2019-01-21T09:24:35.010Z,96.62
2019-01-21T09:27:20.607Z,92.27
2019-01-21T09:30:49.143Z,95.38
2019-01-21T09:33:46.991Z,91.90
2019-01-21T09:36:46.993Z,92.35
2019-01-21T09:39:49.212Z,86.90
2019-01-21T09:42:26.834Z,91.58
2019-01-21T09:45:26.055Z,86.85
2019-01-21T09:47:53.856Z,83.07
2019-01-21T09:50:23.708Z,80.30
2019-01-21T09:52:54.009Z,75.95
2019-01-21T09:55:26.269Z,73.67
2019-01-21T09:58:07.846Z,77.80
2019-01-21T10:00:37.705Z,75.17
2019-01-21T10:03:08.803Z,70.56
2019-01-21T10:05:40.038Z,69.34
2019-01-21T10:08:45.975Z,76.63
2019-01-21T10:11:52.317Z,74.71
2019-01-21T10:14:59.650Z,78.68
2019-01-21T10:18:03.656Z,72.37
2019-01-21T10:21:09.649Z,67.08
2019-01-21T10:24:43.811Z,72.87
2019-01-21T10:27:38.627Z,73.58
2019-01-21T10:30:57.952Z,71.25
2019-01-21T10:34:07.062Z,70.92
2019-01-21T10:37:18.628Z,74.46
2019-01-21T10:40:39.713Z,69.88
2019-01-21T10:43:56.030Z,72.57
2019-01-21T10:47:12.410Z,72.86
2019-01-21T10:50:09.859Z,71.23
2019-01-21T10:52:58.658Z,76.82
2019-01-21T10:55:55.108Z,71.12
2019-01-21T10:58:37.691Z,69.67
2019-01-21T11:01:44.800Z,68.84
2019-01-21T11:04:36.808Z,70.80
2019-01-21T11:07:41.637Z,72.42
2019-01-21T11:10:53.481Z,70.38
2019-01-21T11:13:59.813Z,69.43
2019-01-21T11:17:10.466Z,68.81
2019-01-21T11:20:23.461Z,65.61
2019-01-21T11:23:08.669Z,60.84
2019-01-21T11:26:03.830Z,64.63
2019-01-21T11:28:48.984Z,63.52
2019-01-21T11:31:50.919Z,68.21
2019-01-21T11:34:53.174Z,65.59
2019-01-21T11:37:59.778Z,64.64
2019-01-21T11:40:54.601Z,63.24
2019-01-21T11:44:13.984Z,65.54
2019-01-21T11:47:17.160Z,64.90
2019-01-21T11:50:34.908Z,64.98
2019-01-21T11:53:17.375Z,65.91
2019-01-21T11:56:25.515Z,60.72
2019-01-21T11:59:25.189Z,67.05
2019-01-21T12:02:45.913Z,61.79
2019-01-21T12:05:54.062Z,63.67
2019-01-21T12:08:51.312Z,64.60
2019-01-21T12:11:32.780Z,60.56
2019-01-21T12:14:45.418Z,59.67
2019-01-21T12:18:07.889Z,63.55
2019-01-21T12:21:16.746Z,59.74
2019-01-21T12:24:34.989Z,64.47
2019-01-21T12:27:31.978Z,66.20
2019-01-21T12:30:43.890Z,64.05
2019-01-21T12:34:09.285Z,63.96
2019-01-21T12:36:54.310Z,58.76
2019-01-21T12:40:03.016Z,61.46
2019-01-21T12:42:44.550Z,62.77
2019-01-21T12:45:54.402Z,59.38
2019-01-21T12:48:59.393Z,59.36
2019-01-21T12:51:59.652Z,57.83
2019-01-21T12:55:11.760Z,58.95
2019-01-21T12:58:10.387Z,57.50
2019-01-21T13:01:13.967Z,62.35
2019-01-21T13:04:20.200Z,62.74
2019-01-21T13:07:25.598Z,61.48
2019-01-21T13:10:32.889Z,59.76
2019-01-21T13:13:38.303Z,59.31
2019-01-21T13:16:37.063Z,60.86
2019-01-21T13:19:38.565Z,61.36
2019-01-21T13:22:28.277Z,63.64
2019-01-21T13:25:38.715Z,65.19
2019-01-21T13:28:56.995Z,66.24
2019-01-21T13:32:25.499Z,66.20
2019-01-21T13:35:49.973Z,72.33
2019-01-21T13:39:04.582Z,75.25
2019-01-21T13:42:03.215Z,73.36
2019-01-21T13:44:49.741Z,71.67
2019-01-21T13:47:58.633Z,69.63
2019-01-21T13:51:06.761Z,67.89
2019-01-21T13:54:22.694Z,66.78
2019-01-21T13:57:24.836Z,86.90
2019-01-21T14:00:28.068Z,92.96
2019-01-21T14:03:22.567Z,86.01
2019-01-21T14:06:14.106Z,83.99
2019-01-21T14:09:08.464Z,86.91
2019-01-21T14:12:20.101Z,83.51
2019-01-21T14:15:17.731Z,82.84
2019-01-21T14:18:16.369Z,85.15
2019-01-21T14:21:25.013Z,85.39
2019-01-21T14:24:15.001Z,83.63
2019-01-21T14:27:08.719Z,81.55
2019-01-21T14:30:06.610Z,80.67
2019-01-21T14:33:01.338Z,79.08
2019-01-21T14:35:53.090Z,78.86
2019-01-21T14:38:54.010Z,79.14
2019-01-21T14:41:57.319Z,78.71
2019-01-21T14:45:09.046Z,81.33
2019-01-21T14:48:40.361Z,81.47
2019-01-21T14:51:39.239Z,81.87
2019-01-21T14:54:58.161Z,82.68
2019-01-21T14:58:11.464Z,79.32
2019-01-21T15:01:08.463Z,84.65
2019-01-21T15:04:06.185Z,88.30
2019-01-21T15:07:18.458Z,91.87
2019-01-21T15:10:14.271Z,94.37
2019-01-21T15:13:18.335Z,94.68
2019-01-21T15:16:28.382Z,93.64
2019-01-21T15:19:11.190Z,95.52
2019-01-21T15:22:22.506Z,96.65
2019-01-21T15:25:33.675Z,98.58
2019-01-21T15:29:08.155Z,99.48
2019-01-21T15:32:09.783Z,99.22
2019-01-21T15:35:10.875Z,100.00
2019-01-21T15:38:23.993Z,100.00
2019-01-21T15:41:19.499Z,100.00
2019-01-21T15:44:29.528Z,100.00
2019-01-21T15:47:37.396Z,100.00
2019-01-21T15:50:20.639Z,100.00
2019-01-21T15:53:09.053Z,100.00
2019-01-21T15:56:11.012Z,100.00
2019-01-21T15:59:07.888Z,100.00
2019-01-21T16:01:55.921Z,100.00
2019-01-21T16:05:09.038Z,100.00
2019-01-21T16:08:22.443Z,100.00
2019-01-21T16:11:05.433Z,100.00
2019-01-21T16:13:59.426Z,100.00
2019-01-21T16:17:06.730Z,100.00
2019-01-21T16:19:43.053Z,100.00
2019-01-21T16:23:09.976Z,100.00
2019-01-21T16:25:58.977Z,100.00
2019-01-21T16:29:07.817Z,100.00
2019-01-21T16:32:12.738Z,100.00
2019-01-21T16:35:25.697Z,100.00
2019-01-21T16:38:17.434Z,100.00
2019-01-21T16:41:30.172Z,100.00
2019-01-21T16:43:59.790Z,100.00
2019-01-21T16:46:29.401Z,100.00
2019-01-21T16:48:59.109Z,100.00
2019-01-21T16:51:28.819Z,100.00
2019-01-21T16:53:58.445Z,100.00
2019-01-21T16:56:28.148Z,100.00
2019-01-21T16:58:57.770Z,100.00
2019-01-21T17:01:30.575Z,100.00
2019-01-21T17:04:00.333Z,100.00
2019-01-21T17:06:30.069Z,100.00
2019-01-21T17:09:00.366Z,100.00
2019-01-21T17:11:30.811Z,100.00
2019-01-21T17:14:00.381Z,100.00
2019-01-21T17:16:30.013Z,100.00
2019-01-21T17:18:59.824Z,100.00
2019-01-21T17:21:29.467Z,100.00
2019-01-21T17:23:59.142Z,100.00
2019-01-21T17:26:28.922Z,100.00
2019-01-21T17:28:58.565Z,100.00
2019-01-21T17:31:28.217Z,100.00
2019-01-21T17:33:57.933Z,100.00
2019-01-21T17:36:27.591Z,100.00
2019-01-21T17:38:57.260Z,100.00
2019-01-21T17:41:27.072Z,100.00
2019-01-21T17:43:56.746Z,100.00
2019-01-21T17:46:26.383Z,100.00
2019-01-21T17:48:56.096Z,100.00
2019-01-21T17:51:25.734Z,100.00
2019-01-21T17:53:55.351Z,100.00
2019-01-21T17:56:25.158Z,100.00
2019-01-21T17:58:55.459Z,100.00
2019-01-21T18:01:25.174Z,100.00
2019-01-21T18:03:54.970Z,100.00
2019-01-21T18:06:24.677Z,100.00
2019-01-21T18:08:54.302Z,100.00
2019-01-21T18:11:23.997Z,100.00
2019-01-21T18:13:53.736Z,100.00
2019-01-21T18:16:23.356Z,100.00
2019-01-21T18:18:53.048Z,100.00
2019-01-21T18:21:22.754Z,100.00
2019-01-21T18:23:52.381Z,100.00
2019-01-21T18:26:22.185Z,100.00
2019-01-21T18:28:51.787Z,100.00
2019-01-21T18:31:21.436Z,100.00
2019-01-21T18:33:51.169Z,100.00
2019-01-21T18:36:20.786Z,100.00
2019-01-21T18:38:50.423Z,100.00
2019-01-21T18:41:20.170Z,100.00
2019-01-21T18:43:49.870Z,100.00
2019-01-21T18:46:19.508Z,100.00
2019-01-21T18:48:49.283Z,100.00
2019-01-21T18:51:18.952Z,100.00
2019-01-21T18:53:48.701Z,100.00
2019-01-21T18:56:18.432Z,100.00
2019-01-21T18:58:48.088Z,100.00
2019-01-21T19:01:17.736Z,100.00
2019-01-21T19:03:47.458Z,100.00
2019-01-21T19:06:17.132Z,100.00
2019-01-21T19:08:46.700Z,100.00
2019-01-21T19:11:16.365Z,100.00
2019-01-21T19:13:46.138Z,100.00
2019-01-21T19:16:15.774Z,100.00
2019-01-21T19:18:45.424Z,100.00
2019-01-21T19:21:15.148Z,100.00
2019-01-21T19:23:44.806Z,100.00
2019-01-21T19:26:14.467Z,100.00
2019-01-21T19:28:44.147Z,100.00
2019-01-21T19:31:13.814Z,100.00
2019-01-21T19:33:43.453Z,100.00
2019-01-21T19:36:13.086Z,100.00
2019-01-21T19:38:42.774Z,100.00
2019-01-21T19:41:12.538Z,100.00
2019-01-21T19:43:42.226Z,100.00
2019-01-21T19:46:15.022Z,100.00
2019-01-21T19:48:44.678Z,100.00
2019-01-21T19:51:14.458Z,100.00
2019-01-21T19:53:44.082Z,100.00
2019-01-21T19:56:13.763Z,100.00
2019-01-21T19:58:43.408Z,100.00
2019-01-21T20:01:13.210Z,100.00
2019-01-21T20:03:42.854Z,100.00
2019-01-21T20:06:12.618Z,100.00
2019-01-21T20:08:42.293Z,100.00
2019-01-21T20:11:12.119Z,100.00
2019-01-21T20:13:41.745Z,100.00
2019-01-21T20:16:11.553Z,100.00
2019-01-21T20:18:41.195Z,100.00
2019-01-21T20:21:10.956Z,100.00
2019-01-21T20:23:40.600Z,100.00
2019-01-21T20:26:10.401Z,100.00
2019-01-21T20:28:40.088Z,100.00
2019-01-21T20:31:09.799Z,100.00
2019-01-21T20:33:39.410Z,100.00
2019-01-21T20:36:09.115Z,100.00
2019-01-21T20:38:38.729Z,100.00
2019-01-21T20:41:08.408Z,100.00
2019-01-21T20:43:38.087Z,100.00
2019-01-21T20:46:07.817Z,100.00
2019-01-21T20:48:37.514Z,100.00
2019-01-21T20:51:07.186Z,100.00
2019-01-21T20:53:36.877Z,100.00
2019-01-21T20:56:06.489Z,100.00
2019-01-21T20:58:36.302Z,100.00
2019-01-21T21:01:06.044Z,100.00
2019-01-21T21:03:35.967Z,100.00
2019-01-21T21:06:05.689Z,100.00
2019-01-21T21:08:35.309Z,100.00
2019-01-21T21:11:04.844Z,100.00
2019-01-21T21:13:34.458Z,100.00
2019-01-21T21:16:03.997Z,100.00
2019-01-21T21:18:33.565Z,100.00
2019-01-21T21:21:03.111Z,100.00
2019-01-21T21:23:32.699Z,100.00
2019-01-21T21:26:02.267Z,100.00
2019-01-21T21:28:32.149Z,100.00
2019-01-21T21:31:01.695Z,100.00
2019-01-21T21:33:31.328Z,100.00
2019-01-21T21:36:00.863Z,100.00
2019-01-21T21:38:30.545Z,100.00
2019-01-21T21:41:00.069Z,100.00
2019-01-21T21:43:29.647Z,100.00
2019-01-21T21:45:59.268Z,100.00
2019-01-21T21:48:31.862Z,100.00
2019-01-21T21:51:00.128Z,100.00
2019-01-21T21:53:29.661Z,100.00
2019-01-21T21:55:59.223Z,100.00
2019-01-21T21:58:28.786Z,100.00
2019-01-21T22:00:58.485Z,100.00
2019-01-21T22:03:27.997Z,100.00
2019-01-21T22:05:57.554Z,100.00
2019-01-21T22:08:27.072Z,100.00
2019-01-21T22:10:56.628Z,100.00
2019-01-21T22:13:26.228Z,100.00
2019-01-21T22:15:55.752Z,100.00
2019-01-21T22:18:25.329Z,100.00
2019-01-21T22:20:54.866Z,100.00
2019-01-21T22:23:25.332Z,100.00
2019-01-21T22:25:54.899Z,100.00
2019-01-21T22:28:24.646Z,100.00
2019-01-21T22:30:54.242Z,100.00
2019-01-21T22:33:23.901Z,100.00
2019-01-21T22:35:53.682Z,100.00
2019-01-21T22:38:23.319Z,100.00
2019-01-21T22:40:53.000Z,100.00
2019-01-21T22:43:22.716Z,100.00
2019-01-21T22:45:52.390Z,100.00
2019-01-21T22:48:21.984Z,100.00
2019-01-21T22:50:51.699Z,100.00
2019-01-21T22:53:22.227Z,100.00
2019-01-21T22:55:51.939Z,100.00
2019-01-21T22:58:21.647Z,100.00
2019-01-21T23:01:39.071Z,100.00
2019-01-21T23:04:08.685Z,100.00
2019-01-21T23:06:38.276Z,100.00
2019-01-21T23:09:09.820Z,100.00
2019-01-21T23:11:44.515Z,100.00
2019-01-21T23:14:20.191Z,100.00
2019-01-21T23:16:49.853Z,100.00
2019-01-21T23:19:19.483Z,100.00
2019-01-21T23:21:49.205Z,100.00
2019-01-21T23:24:19.056Z,100.00
2019-01-21T23:26:48.678Z,100.00
2019-01-21T23:29:18.357Z,100.00
2019-01-21T23:31:47.996Z,100.00
2019-01-21T23:34:17.634Z,100.00
2019-01-21T23:36:47.484Z,100.00
2019-01-21T23:39:17.079Z,100.00
2019-01-21T23:41:46.759Z,100.00
2019-01-21T23:44:16.624Z,100.00
2019-01-21T23:46:46.346Z,100.00
2019-01-21T23:49:16.346Z,100.00
2019-01-21T23:51:46.184Z,100.00
2019-01-21T23:54:16.046Z,100.00
2019-01-21T23:56:45.773Z,100.00
2019-01-21T23:59:15.470Z,100.00
